TimeMST,TemperatureF,Dew PointF,Humidity,Sea Level PressureIn,VisibilityMPH,Wind Direction,Wind SpeedMPH,Gust SpeedMPH,PrecipitationIn,Events,Conditions,WindDirDegrees,DateUTC
12:51 AM,46.0,28.9,51,30.18,10.0,ENE,4.6,-,N/A,,Clear,70,2013-02-13 07:51:00
1:51 AM,44.1,32.0,63,30.19,10.0,Calm,Calm,-,N/A,,Clear,0,2013-02-13 08:51:00
2:51 AM,43.0,32.0,65,30.17,10.0,Calm,Calm,-,N/A,,Clear,0,2013-02-13 09:51:00
3:51 AM,43.0,30.9,62,30.16,10.0,Calm,Calm,-,N/A,,Clear,0,2013-02-13 10:51:00
4:51 AM,41.0,32.0,70,30.16,10.0,Calm,Calm,-,N/A,,Clear,0,2013-02-13 11:51:00
5:51 AM,41.0,30.9,67,30.17,10.0,Calm,Calm,-,N/A,,Clear,0,2013-02-13 12:51:00
6:51 AM,39.9,32.0,73,30.17,10.0,East,4.6,-,N/A,,Clear,100,2013-02-13 13:51:00
7:51 AM,41.0,30.0,65,30.18,10.0,East,4.6,-,N/A,,Clear,100,2013-02-13 14:51:00
8:51 AM,46.9,28.9,50,30.20,10.0,ESE,4.6,-,N/A,,Clear,120,2013-02-13 15:51:00
9:51 AM,50.0,26.1,39,30.20,10.0,East,6.9,-,N/A,,Clear,100,2013-02-13 16:51:00
10:51 AM,52.0,25.0,35,30.20,10.0,East,3.5,-,N/A,,Clear,90,2013-02-13 17:51:00
11:51 AM,55.9,24.1,29,30.19,10.0,NE,3.5,-,N/A,,Clear,50,2013-02-13 18:51:00
12:51 PM,57.9,21.0,24,30.15,10.0,NNW,3.5,-,N/A,,Clear,340,2013-02-13 19:51:00
1:51 PM,60.1,19.9,21,30.12,10.0,Calm,Calm,-,N/A,,Clear,0,2013-02-13 20:51:00
2:51 PM,63.0,17.1,17,30.10,10.0,SW,5.8,-,N/A,,Clear,220,2013-02-13 21:51:00
3:51 PM,63.0,15.1,16,30.09,10.0,Calm,Calm,-,N/A,,Clear,0,2013-02-13 22:51:00
4:51 PM,63.0,18.0,18,30.08,10.0,WSW,6.9,-,N/A,,Clear,250,2013-02-13 23:51:00
5:51 PM,62.1,19.0,19,30.07,10.0,WSW,6.9,-,N/A,,Clear,240,2013-02-14 00:51:00
6:51 PM,60.1,14.0,16,30.08,10.0,West,5.8,-,N/A,,Clear,260,2013-02-14 01:51:00
7:51 PM,57.0,21.9,26,30.09,10.0,SW,4.6,-,N/A,,Clear,220,2013-02-14 02:51:00
8:51 PM,55.0,26.1,33,30.09,10.0,Calm,Calm,-,N/A,,Clear,0,2013-02-14 03:51:00
9:51 PM,55.9,24.1,29,30.09,10.0,Calm,Calm,-,N/A,,Clear,0,2013-02-14 04:51:00
10:51 PM,51.1,28.9,43,30.09,10.0,Calm,Calm,-,N/A,,Clear,0,2013-02-14 05:51:00
11:51 PM,51.8,28.4,41,30.11,10.0,Calm,Calm,-,N/A,,Clear,0,2013-02-14 06:51:00